createdAt,value
2023-01-25T00:00:29.093Z,20.50
2023-01-25T00:01:29.192Z,20.60
2023-01-25T00:02:29.252Z,19.40
2023-01-25T00:03:29.165Z,19.10
2023-01-25T00:04:29.217Z,19.60
2023-01-25T00:05:30.162Z,19.80
2023-01-25T00:06:29.049Z,19.40
2023-01-25T00:07:29.086Z,18.90
2023-01-25T00:08:29.122Z,19.60
2023-01-25T00:09:29.180Z,19.70
2023-01-25T00:10:28.971Z,20.00
2023-01-25T00:11:28.964Z,20.40
2023-01-25T00:12:28.955Z,20.70
2023-01-25T00:13:28.972Z,20.10
2023-01-25T00:14:28.908Z,20.70
2023-01-25T00:15:28.890Z,20.60
2023-01-25T00:16:28.999Z,21.30
2023-01-25T00:17:28.812Z,20.30
2023-01-25T00:18:28.851Z,20.20
2023-01-25T00:19:28.957Z,20.30
2023-01-25T00:20:28.929Z,20.30
2023-01-25T00:21:28.767Z,19.80
2023-01-25T00:22:28.745Z,20.20
2023-01-25T00:23:28.735Z,20.30
2023-01-25T00:24:28.683Z,19.50
2023-01-25T00:25:29.085Z,20.20
2023-01-25T00:26:28.679Z,20.10
2023-01-25T00:27:28.768Z,20.60
2023-01-25T00:28:28.706Z,20.40
2023-01-25T00:29:29.124Z,20.60
2023-01-25T00:30:28.692Z,20.30
2023-01-25T00:31:28.750Z,21.10
2023-01-25T00:32:28.752Z,20.60
2023-01-25T00:33:28.724Z,19.80
2023-01-25T00:34:28.615Z,20.60
2023-01-25T00:35:28.716Z,20.70
2023-01-25T00:36:28.647Z,20.80
2023-01-25T00:37:28.622Z,21.70
2023-01-25T00:38:28.575Z,21.40
2023-01-25T00:39:28.464Z,20.40
2023-01-25T00:40:28.491Z,22.30
2023-01-25T00:41:28.485Z,21.30
2023-01-25T00:42:28.690Z,21.00
2023-01-25T00:43:28.506Z,20.50
2023-01-25T00:44:28.405Z,20.60
2023-01-25T00:45:28.520Z,20.00
2023-01-25T00:46:28.420Z,21.50
2023-01-25T00:47:28.512Z,21.60
2023-01-25T00:48:28.523Z,20.30
2023-01-25T00:49:28.446Z,21.60
2023-01-25T00:50:28.410Z,21.50
2023-01-25T00:51:28.350Z,20.40
2023-01-25T00:52:28.435Z,21.00
2023-01-25T00:53:28.346Z,20.70
2023-01-25T00:54:28.378Z,20.40
2023-01-25T00:55:28.457Z,22.00
2023-01-25T00:56:28.275Z,21.60
2023-01-25T00:57:28.385Z,20.90
2023-01-25T00:58:28.397Z,21.70
2023-01-25T00:59:28.291Z,20.50
2023-01-25T01:00:28.216Z,20.50
2023-01-25T01:01:28.386Z,20.80
2023-01-25T01:02:28.221Z,19.80
2023-01-25T01:03:28.192Z,20.70
2023-01-25T01:04:28.372Z,22.10
2023-01-25T01:05:28.217Z,20.70
2023-01-25T01:06:28.220Z,21.20
2023-01-25T01:07:28.225Z,21.50
2023-01-25T01:08:28.235Z,20.80
2023-01-25T01:09:28.133Z,20.50
2023-01-25T01:10:28.153Z,20.80
2023-01-25T01:11:28.150Z,20.50
2023-01-25T01:12:28.064Z,20.80
2023-01-25T01:13:28.182Z,20.90
2023-01-25T01:14:28.073Z,20.70
2023-01-25T01:15:32.302Z,19.70
2023-01-25T01:18:06.784Z,19.40
2023-01-25T01:19:06.422Z,19.50
2023-01-25T01:20:06.242Z,18.50
2023-01-25T01:21:06.333Z,19.20
2023-01-25T01:22:06.264Z,19.20
2023-01-25T01:23:06.254Z,18.00
2023-01-25T01:24:06.315Z,19.00
2023-01-25T01:25:06.761Z,19.00
2023-01-25T01:26:06.351Z,19.60
2023-01-25T01:27:06.272Z,19.70
2023-01-25T01:28:06.300Z,19.50
2023-01-25T01:29:06.259Z,19.10
2023-01-25T01:30:06.443Z,20.00
2023-01-25T01:31:06.580Z,20.50
2023-01-25T01:32:06.317Z,19.70
2023-01-25T01:33:06.113Z,19.40
2023-01-25T01:34:06.228Z,19.50
2023-01-25T01:35:06.448Z,18.60
2023-01-25T01:36:06.124Z,19.50
2023-01-25T01:37:06.241Z,19.00
2023-01-25T01:38:06.120Z,18.60
2023-01-25T01:39:06.053Z,18.60
2023-01-25T01:40:06.084Z,19.00
2023-01-25T01:41:06.086Z,18.70
2023-01-25T01:42:06.072Z,19.30
2023-01-25T01:43:06.094Z,19.10
2023-01-25T01:44:06.073Z,19.00
2023-01-25T01:45:06.360Z,18.90
2023-01-25T01:46:06.066Z,19.00
2023-01-25T01:47:06.081Z,18.60
2023-01-25T01:48:05.990Z,18.30
2023-01-25T01:49:05.918Z,18.20
2023-01-25T01:50:06.211Z,19.30
2023-01-25T01:51:05.951Z,19.90
2023-01-25T01:52:05.921Z,19.50
2023-01-25T01:53:05.918Z,19.30
2023-01-25T01:54:05.928Z,19.70
2023-01-25T01:55:06.246Z,18.80
2023-01-25T01:56:05.879Z,18.30
2023-01-25T01:57:05.842Z,19.00
2023-01-25T01:58:05.888Z,19.80
2023-01-25T01:59:05.901Z,18.70
2023-01-25T02:00:05.851Z,19.00
2023-01-25T02:01:05.785Z,20.20
2023-01-25T02:02:05.759Z,20.20
2023-01-25T02:03:05.804Z,20.90
2023-01-25T02:04:05.712Z,21.20
2023-01-25T02:05:06.167Z,20.80
2023-01-25T02:06:05.651Z,19.90
2023-01-25T02:07:05.625Z,20.90
2023-01-25T02:08:06.641Z,20.80
2023-01-25T02:09:05.734Z,21.10
2023-01-25T02:10:05.650Z,20.30
2023-01-25T02:11:05.708Z,20.10
2023-01-25T02:12:05.653Z,20.50
2023-01-25T02:13:05.881Z,20.70
2023-01-25T02:14:05.699Z,20.70
2023-01-25T02:15:06.572Z,20.10
2023-01-25T02:16:05.561Z,20.30
2023-01-25T02:17:05.598Z,20.80
2023-01-25T02:18:05.499Z,20.30
2023-01-25T02:19:05.535Z,20.90
2023-01-25T02:20:05.515Z,20.90
2023-01-25T02:21:05.525Z,20.10
2023-01-25T02:22:05.524Z,21.60
2023-01-25T02:23:05.533Z,21.40
2023-01-25T02:24:05.495Z,20.20
2023-01-25T02:25:05.883Z,20.80
2023-01-25T02:26:05.590Z,21.00
2023-01-25T02:27:05.374Z,21.70
2023-01-25T02:28:05.452Z,22.20
2023-01-25T02:29:05.388Z,21.80
2023-01-25T02:30:05.388Z,21.40
2023-01-25T02:31:05.587Z,21.20
2023-01-25T02:32:05.494Z,20.90
2023-01-25T02:33:05.356Z,20.40
2023-01-25T02:34:05.393Z,21.30
2023-01-25T02:35:05.784Z,21.80
2023-01-25T02:36:05.341Z,21.00
2023-01-25T02:37:05.329Z,22.30
2023-01-25T02:38:05.230Z,21.20
2023-01-25T02:39:05.349Z,20.90
2023-01-25T02:40:05.244Z,21.30
2023-01-25T02:41:05.552Z,20.80
2023-01-25T02:42:05.353Z,21.00
2023-01-25T02:43:05.365Z,20.50
2023-01-25T02:44:05.231Z,20.60
2023-01-25T02:45:05.619Z,20.80
2023-01-25T02:46:05.346Z,21.80
2023-01-25T02:47:05.295Z,20.50
2023-01-25T02:48:05.181Z,20.30
2023-01-25T02:49:05.194Z,20.20
2023-01-25T02:50:05.208Z,21.10
2023-01-25T02:51:05.101Z,21.40
2023-01-25T02:52:05.132Z,22.00
2023-01-25T02:53:05.165Z,21.80
2023-01-25T02:54:05.047Z,22.20
2023-01-25T02:55:06.186Z,23.10
2023-01-25T02:56:05.044Z,22.50
2023-01-25T02:57:05.769Z,22.70
2023-01-25T02:58:04.965Z,23.60
2023-01-25T02:59:05.061Z,22.10
2023-01-25T03:00:04.976Z,21.60
2023-01-25T03:01:04.980Z,22.10
2023-01-25T03:02:04.919Z,22.50
2023-01-25T03:03:04.905Z,22.40
2023-01-25T03:04:04.913Z,21.20
2023-01-25T03:05:04.950Z,23.20
2023-01-25T03:06:04.912Z,22.50
2023-01-25T03:07:04.813Z,21.50
2023-01-25T03:08:04.836Z,21.50
2023-01-25T03:09:05.249Z,22.20
2023-01-25T03:10:04.935Z,20.40
2023-01-25T03:11:04.877Z,21.70
2023-01-25T03:12:04.852Z,21.50
2023-01-25T03:13:04.798Z,20.90
2023-01-25T03:14:04.971Z,22.10
2023-01-25T03:15:04.863Z,21.20
2023-01-25T03:16:04.875Z,21.20
2023-01-25T03:17:04.794Z,20.60
2023-01-25T03:18:04.721Z,21.90
2023-01-25T03:19:04.721Z,21.70
2023-01-25T03:20:05.003Z,21.00
2023-01-25T03:21:04.702Z,22.20
2023-01-25T03:22:04.640Z,21.90
2023-01-25T03:23:04.717Z,21.00
2023-01-25T03:24:04.689Z,21.90
2023-01-25T03:25:04.679Z,21.50
2023-01-25T03:26:04.572Z,21.10
2023-01-25T03:27:04.568Z,21.20
2023-01-25T03:28:04.646Z,20.40
2023-01-25T03:29:04.588Z,21.00
2023-01-25T03:30:04.582Z,22.10
2023-01-25T03:31:04.681Z,21.50
2023-01-25T03:32:05.564Z,21.60
2023-01-25T03:33:04.539Z,21.30
2023-01-25T03:34:04.831Z,20.80
2023-01-25T03:35:04.607Z,21.00
2023-01-25T03:36:04.547Z,20.90
2023-01-25T03:37:04.523Z,22.10
2023-01-25T03:38:04.547Z,21.80
2023-01-25T03:39:04.359Z,21.60
2023-01-25T03:40:04.442Z,20.90
2023-01-25T03:41:04.453Z,20.50
2023-01-25T03:42:04.461Z,22.00
2023-01-25T03:43:04.490Z,20.80
2023-01-25T03:44:04.391Z,21.90
2023-01-25T03:45:04.386Z,21.00
2023-01-25T03:46:04.304Z,21.40
2023-01-25T03:47:04.363Z,21.90
2023-01-25T03:48:04.392Z,21.00
2023-01-25T03:49:04.316Z,22.10
2023-01-25T03:50:04.427Z,21.60
2023-01-25T03:51:04.322Z,21.10
2023-01-25T03:52:04.231Z,22.30
2023-01-25T03:53:04.229Z,22.30
2023-01-25T03:54:04.240Z,22.50
2023-01-25T03:55:04.337Z,23.80
2023-01-25T03:56:04.254Z,22.70
2023-01-25T03:57:04.262Z,22.20
2023-01-25T03:58:04.247Z,22.30
2023-01-25T03:59:04.206Z,23.20
2023-01-25T04:00:04.958Z,23.00
2023-01-25T04:01:04.493Z,22.40
2023-01-25T04:02:04.236Z,22.10
2023-01-25T04:03:04.101Z,21.90
2023-01-25T04:04:04.113Z,21.80
2023-01-25T04:05:04.223Z,21.90
2023-01-25T04:06:04.204Z,21.30
2023-01-25T04:07:04.111Z,21.00
2023-01-25T04:08:04.942Z,21.20
2023-01-25T04:09:04.133Z,20.60
2023-01-25T04:10:04.073Z,21.30
2023-01-25T04:11:03.980Z,20.30
2023-01-25T04:12:04.802Z,21.30
2023-01-25T04:13:03.976Z,19.30
2023-01-25T04:14:04.513Z,20.10
2023-01-25T04:15:03.985Z,19.70
2023-01-25T04:16:03.988Z,19.60
2023-01-25T04:17:04.094Z,20.80
2023-01-25T04:18:03.903Z,20.00
2023-01-25T04:19:04.005Z,19.50
2023-01-25T04:20:04.023Z,19.30
2023-01-25T04:21:04.018Z,18.30
2023-01-25T04:22:03.927Z,18.90
2023-01-25T04:23:04.044Z,19.40
2023-01-25T04:24:03.986Z,19.00
2023-01-25T04:25:03.937Z,19.00
2023-01-25T04:26:03.757Z,19.80
2023-01-25T04:27:03.894Z,18.80
2023-01-25T04:28:03.883Z,17.70
2023-01-25T04:29:03.886Z,18.40
2023-01-25T04:30:03.898Z,18.80
2023-01-25T04:31:03.879Z,18.20
2023-01-25T04:32:03.922Z,18.70
2023-01-25T04:33:03.918Z,19.00
2023-01-25T04:34:03.815Z,19.00
2023-01-25T04:35:03.710Z,19.80
2023-01-25T04:36:03.728Z,20.00
2023-01-25T04:37:03.725Z,20.70
2023-01-25T04:38:03.660Z,20.70
2023-01-25T04:39:03.630Z,21.80
2023-01-25T04:40:03.742Z,20.80
2023-01-25T04:41:03.653Z,19.80
2023-01-25T04:42:03.547Z,21.40
2023-01-25T04:43:03.707Z,20.60
2023-01-25T04:44:03.579Z,20.90
2023-01-25T04:45:03.579Z,20.90
2023-01-25T04:46:03.718Z,21.60
2023-01-25T04:47:03.589Z,20.50
2023-01-25T04:48:03.692Z,21.00
2023-01-25T04:49:03.515Z,21.60
2023-01-25T04:50:04.933Z,20.40
2023-01-25T04:51:03.411Z,20.60
2023-01-25T04:52:03.432Z,21.40
2023-01-25T04:53:03.439Z,20.40
2023-01-25T04:54:03.438Z,19.80
2023-01-25T04:55:03.543Z,20.90
2023-01-25T04:56:03.485Z,20.10
2023-01-25T04:57:03.365Z,21.00
2023-01-25T04:58:03.409Z,21.80
2023-01-25T04:59:03.389Z,20.90
2023-01-25T05:00:03.364Z,21.50
2023-01-25T05:01:03.668Z,20.40
2023-01-25T05:02:03.418Z,20.10
2023-01-25T05:03:03.403Z,19.20
2023-01-25T05:04:03.345Z,20.20
2023-01-25T05:05:03.316Z,19.20
2023-01-25T05:06:03.213Z,20.30
2023-01-25T05:07:03.229Z,19.30
2023-01-25T05:08:03.441Z,19.40
2023-01-25T05:09:03.233Z,19.30
2023-01-25T05:10:03.260Z,19.30
2023-01-25T05:11:03.247Z,18.10
2023-01-25T05:13:25.485Z,19.70
2023-01-25T05:14:23.237Z,19.80
2023-01-25T05:15:23.265Z,18.50
2023-01-25T05:16:23.249Z,19.20
2023-01-25T05:17:23.185Z,19.00
2023-01-25T05:18:23.380Z,20.10
2023-01-25T05:19:23.194Z,20.30
2023-01-25T05:20:23.183Z,19.80
2023-01-25T05:21:23.172Z,20.00
2023-01-25T05:22:23.219Z,20.20
2023-01-25T05:23:23.220Z,18.60
2023-01-25T05:24:23.823Z,18.90
2023-01-25T05:25:23.095Z,20.00
2023-01-25T05:26:23.109Z,19.80
2023-01-25T05:27:23.128Z,19.40
2023-01-25T05:28:23.033Z,20.30
2023-01-25T05:29:23.072Z,20.50
2023-01-25T05:30:23.047Z,19.40
2023-01-25T05:31:23.184Z,20.80
2023-01-25T05:32:22.989Z,19.90
2023-01-25T05:33:22.963Z,19.70
2023-01-25T05:34:23.178Z,20.30
2023-01-25T05:35:23.202Z,19.40
2023-01-25T05:36:23.887Z,19.50
2023-01-25T05:37:23.108Z,20.30
2023-01-25T05:38:23.125Z,19.10
2023-01-25T05:39:23.830Z,19.20
2023-01-25T05:40:22.923Z,19.50
2023-01-25T05:41:23.130Z,19.90
2023-01-25T05:42:22.919Z,18.20
2023-01-25T05:43:22.938Z,19.10
2023-01-25T05:44:23.042Z,18.70
2023-01-25T05:45:22.937Z,20.10
2023-01-25T05:46:22.906Z,19.10
2023-01-25T05:47:22.962Z,19.20
2023-01-25T05:48:22.868Z,19.30
2023-01-25T05:49:22.775Z,18.60
2023-01-25T05:50:22.888Z,19.10
2023-01-25T05:51:22.933Z,18.60
2023-01-25T05:52:22.814Z,18.70
2023-01-25T05:53:23.144Z,18.60
2023-01-25T05:54:22.823Z,20.00
2023-01-25T05:55:22.741Z,19.60
2023-01-25T05:56:22.762Z,19.20
2023-01-25T05:57:22.842Z,19.80
2023-01-25T05:58:22.733Z,18.30
2023-01-25T05:59:22.735Z,19.10
2023-01-25T06:00:22.758Z,19.50
2023-01-25T06:01:22.790Z,18.60
2023-01-25T06:02:22.650Z,18.70
2023-01-25T06:03:23.721Z,18.20
2023-01-25T06:04:22.655Z,17.90
2023-01-25T06:05:22.767Z,17.50
2023-01-25T06:06:22.601Z,18.00
2023-01-25T06:07:24.653Z,18.20
2023-01-25T06:08:22.820Z,18.20
2023-01-25T06:09:23.433Z,19.90
2023-01-25T06:10:22.606Z,18.40
2023-01-25T06:11:22.528Z,18.40
2023-01-25T06:12:22.611Z,19.40
2023-01-25T06:13:22.584Z,19.50
2023-01-25T06:14:22.539Z,18.60
2023-01-25T06:15:22.559Z,18.10
2023-01-25T06:16:22.577Z,18.10
2023-01-25T06:17:22.446Z,17.70
2023-01-25T06:18:22.363Z,18.10
2023-01-25T06:19:22.470Z,19.00
2023-01-25T06:20:22.367Z,17.60
2023-01-25T06:21:22.421Z,18.00
2023-01-25T06:22:22.478Z,17.80
2023-01-25T06:23:23.488Z,18.80
2023-01-25T06:24:22.530Z,17.50
2023-01-25T06:25:22.424Z,17.70
2023-01-25T06:26:22.356Z,18.10
2023-01-25T06:27:26.008Z,17.30
2023-01-25T06:28:22.338Z,18.80
2023-01-25T06:29:22.262Z,18.00
2023-01-25T06:30:22.149Z,17.60
2023-01-25T06:31:22.236Z,18.10
2023-01-25T06:32:22.201Z,17.20
2023-01-25T06:33:22.355Z,16.90
2023-01-25T06:34:22.079Z,18.20
2023-01-25T06:35:22.161Z,17.40
2023-01-25T06:36:22.925Z,18.20
2023-01-25T06:37:22.082Z,17.70
2023-01-25T06:38:22.351Z,18.10
2023-01-25T06:39:22.512Z,17.30
2023-01-25T06:40:22.010Z,20.10
2023-01-25T06:41:22.127Z,19.20
2023-01-25T06:42:22.519Z,17.50
2023-01-25T06:43:22.329Z,17.20
2023-01-25T06:44:24.000Z,18.10
2023-01-25T06:45:22.075Z,17.00
2023-01-25T06:46:22.209Z,17.70
2023-01-25T06:47:22.026Z,18.00
2023-01-25T06:48:22.171Z,17.90
2023-01-25T06:49:21.999Z,18.80
2023-01-25T06:50:22.092Z,16.80
2023-01-25T06:51:21.985Z,17.70
2023-01-25T06:52:22.117Z,17.30
2023-01-25T06:53:21.982Z,18.10
2023-01-25T06:54:23.136Z,16.80
2023-01-25T06:55:21.903Z,16.30
2023-01-25T06:56:21.967Z,18.00
2023-01-25T06:57:21.926Z,18.10
2023-01-25T06:58:21.929Z,17.00
2023-01-25T06:59:21.944Z,18.00
2023-01-25T07:00:21.929Z,16.90
2023-01-25T07:01:21.946Z,16.70
2023-01-25T07:02:21.905Z,17.00
2023-01-25T07:03:22.218Z,16.60
2023-01-25T07:04:21.792Z,17.10
2023-01-25T07:05:21.804Z,16.50
2023-01-25T07:06:21.783Z,17.60
2023-01-25T07:07:21.713Z,16.60
2023-01-25T07:08:21.790Z,16.40
2023-01-25T07:09:21.803Z,17.00
2023-01-25T07:10:21.927Z,16.40
2023-01-25T07:11:23.250Z,16.00
2023-01-25T07:12:21.704Z,17.40
2023-01-25T07:13:21.816Z,17.90
2023-01-25T07:14:21.725Z,17.80
2023-01-25T07:15:21.842Z,17.20
2023-01-25T07:16:21.555Z,17.40
2023-01-25T07:17:21.664Z,17.90
2023-01-25T07:18:21.649Z,17.90
2023-01-25T07:19:21.621Z,18.60
2023-01-25T07:20:21.575Z,17.50
2023-01-25T07:21:21.551Z,18.30
2023-01-25T07:22:21.576Z,17.70
2023-01-25T07:23:21.610Z,18.30
2023-01-25T07:24:21.812Z,17.50
2023-01-25T07:25:21.514Z,17.40
2023-01-25T07:26:21.650Z,16.90
2023-01-25T07:27:21.542Z,17.10
2023-01-25T07:28:21.639Z,16.90
2023-01-25T07:29:21.428Z,17.90
2023-01-25T07:30:21.576Z,17.00
2023-01-25T07:31:21.530Z,16.60
2023-01-25T07:32:21.464Z,17.50
2023-01-25T07:33:21.480Z,16.80
2023-01-25T07:34:21.662Z,17.40
2023-01-25T07:35:21.475Z,16.40
2023-01-25T07:36:21.495Z,16.50
2023-01-25T07:37:21.403Z,16.50
2023-01-25T07:38:21.427Z,17.00
2023-01-25T07:39:21.521Z,16.00
2023-01-25T07:40:21.635Z,15.90
2023-01-25T07:41:21.333Z,17.90
2023-01-25T07:42:21.436Z,16.30
2023-01-25T07:43:21.351Z,17.70
2023-01-25T07:44:21.351Z,16.30
2023-01-25T07:45:21.332Z,16.50
2023-01-25T07:46:21.264Z,18.00
2023-01-25T07:47:21.347Z,17.20
2023-01-25T07:48:21.354Z,16.90
2023-01-25T07:49:21.271Z,17.30
2023-01-25T07:50:21.491Z,16.90
2023-01-25T07:51:21.300Z,16.60
2023-01-25T07:52:21.191Z,17.80
2023-01-25T07:53:21.287Z,16.00
2023-01-25T07:54:21.305Z,17.70
2023-01-25T07:55:21.199Z,16.80
2023-01-25T07:56:21.436Z,17.00
2023-01-25T07:57:21.228Z,16.90
2023-01-25T07:58:21.069Z,16.20
2023-01-25T07:59:21.158Z,17.80
2023-01-25T08:00:22.493Z,17.10
2023-01-25T08:01:21.060Z,17.80
2023-01-25T08:02:21.065Z,17.40
2023-01-25T08:03:22.180Z,17.70
2023-01-25T08:04:21.211Z,17.30
2023-01-25T08:05:20.993Z,18.40
2023-01-25T08:06:21.076Z,16.90
2023-01-25T08:07:21.017Z,16.50
2023-01-25T08:08:21.193Z,16.80
2023-01-25T08:09:21.110Z,16.40
2023-01-25T08:10:20.998Z,16.60
2023-01-25T08:11:21.009Z,16.20
2023-01-25T08:12:21.024Z,17.20
2023-01-25T08:13:21.120Z,16.80
2023-01-25T08:14:20.956Z,17.70
2023-01-25T08:15:24.948Z,16.70
2023-01-25T08:16:21.066Z,16.70
2023-01-25T08:17:20.875Z,17.30
2023-01-25T08:18:20.969Z,16.80
2023-01-25T08:19:20.895Z,17.40
2023-01-25T08:20:20.876Z,15.90
2023-01-25T08:21:21.197Z,17.00
2023-01-25T08:22:22.556Z,17.60
2023-01-25T08:23:21.852Z,16.60
2023-01-25T08:24:21.167Z,16.70
2023-01-25T08:25:20.787Z,16.60
2023-01-25T08:26:20.736Z,16.30
2023-01-25T08:27:20.728Z,16.90
2023-01-25T08:28:20.722Z,16.70
2023-01-25T08:29:20.617Z,17.30
2023-01-25T08:30:20.775Z,16.90
2023-01-25T08:31:20.860Z,18.70
2023-01-25T08:32:20.971Z,20.20
2023-01-25T08:33:20.570Z,16.70
2023-01-25T08:34:21.064Z,16.30
2023-01-25T08:35:20.597Z,17.20
2023-01-25T08:36:21.347Z,16.70
2023-01-25T08:37:21.751Z,16.10
2023-01-25T08:38:20.692Z,16.60
2023-01-25T08:39:20.691Z,16.80
2023-01-25T08:40:20.913Z,16.90
2023-01-25T08:41:20.605Z,16.30
2023-01-25T08:42:21.630Z,16.80
2023-01-25T08:43:20.433Z,16.30
2023-01-25T08:44:20.644Z,16.50
2023-01-25T08:45:20.383Z,16.30
2023-01-25T08:46:20.476Z,16.50
2023-01-25T08:47:20.779Z,16.40
2023-01-25T08:48:20.451Z,16.40
2023-01-25T08:49:20.385Z,16.50
2023-01-25T08:50:20.502Z,16.80
2023-01-25T08:51:20.554Z,16.70
2023-01-25T08:52:21.915Z,16.10
2023-01-25T08:53:20.815Z,16.90
2023-01-25T08:54:22.127Z,16.20
2023-01-25T08:55:22.165Z,15.80
2023-01-25T08:56:20.897Z,15.80
2023-01-25T08:57:21.328Z,15.90
2023-01-25T08:58:21.556Z,16.40
2023-01-25T08:59:20.438Z,16.50
2023-01-25T09:00:20.528Z,16.10
2023-01-25T09:01:20.690Z,17.00
2023-01-25T09:02:20.351Z,15.90
2023-01-25T09:03:20.419Z,17.30
2023-01-25T09:04:20.176Z,15.60
2023-01-25T09:05:20.372Z,16.80
2023-01-25T09:06:20.286Z,16.30
2023-01-25T09:07:20.086Z,17.20
2023-01-25T09:08:20.691Z,16.40
2023-01-25T09:09:20.637Z,16.70
2023-01-25T09:10:20.369Z,17.30
2023-01-25T09:11:20.261Z,16.00
2023-01-25T09:12:20.156Z,16.70
2023-01-25T09:13:20.268Z,16.40
2023-01-25T09:14:20.154Z,16.70
2023-01-25T09:15:20.671Z,18.20
2023-01-25T09:16:20.073Z,17.00
2023-01-25T09:17:20.821Z,17.20
2023-01-25T09:18:22.307Z,18.00
2023-01-25T09:19:23.065Z,17.60
2023-01-25T09:20:20.267Z,18.40
2023-01-25T09:21:20.216Z,17.70
2023-01-25T09:22:21.046Z,17.20
2023-01-25T09:23:20.229Z,17.90
2023-01-25T09:24:20.442Z,17.80
2023-01-25T09:25:20.071Z,18.50
2023-01-25T09:26:20.549Z,18.90
2023-01-25T09:27:19.942Z,17.90
2023-01-25T09:28:20.979Z,18.40
2023-01-25T09:29:21.270Z,18.00
2023-01-25T09:30:20.264Z,19.20
2023-01-25T09:31:25.705Z,18.20
2023-01-25T09:32:21.270Z,19.50
2023-01-25T09:33:20.532Z,18.60
2023-01-25T09:34:24.974Z,19.70
2023-01-25T09:35:21.132Z,18.60
2023-01-25T09:36:23.907Z,19.10
2023-01-25T09:37:20.688Z,18.90
2023-01-25T09:38:22.486Z,18.90
2023-01-25T09:39:21.459Z,19.10
2023-01-25T09:40:24.547Z,20.10
2023-01-25T09:41:19.906Z,17.80
2023-01-25T09:42:21.392Z,19.60
2023-01-25T09:43:22.903Z,18.60
2023-01-25T09:44:25.680Z,18.70
2023-01-25T09:45:26.019Z,18.10
2023-01-25T09:46:21.322Z,18.30
2023-01-25T09:47:19.782Z,17.80
2023-01-25T09:48:19.869Z,17.80
2023-01-25T09:49:22.739Z,17.80
2023-01-25T09:50:29.326Z,17.70
2023-01-25T09:51:23.699Z,17.10
2023-01-25T09:52:20.838Z,18.70
2023-01-25T09:53:23.206Z,17.10
2023-01-25T09:54:21.043Z,18.00
2023-01-25T09:55:21.175Z,18.40
2023-01-25T09:56:20.108Z,17.10
2023-01-25T09:57:20.782Z,18.30
2023-01-25T09:58:23.000Z,17.60
2023-01-25T09:59:20.239Z,17.30
2023-01-25T10:00:20.143Z,17.40
2023-01-25T10:01:32.864Z,18.60
2023-01-25T10:02:22.008Z,17.30
2023-01-25T10:03:20.118Z,17.60
2023-01-25T10:04:19.576Z,17.50
2023-01-25T10:05:22.552Z,17.90
2023-01-25T10:06:20.022Z,17.60
2023-01-25T10:07:25.793Z,17.20
2023-01-25T10:08:20.549Z,16.20
2023-01-25T10:09:19.721Z,17.50
2023-01-25T10:10:22.203Z,16.60
2023-01-25T10:11:29.272Z,17.50
2023-01-25T10:12:23.701Z,17.00
2023-01-25T10:13:24.651Z,16.30
2023-01-25T10:14:23.258Z,16.60
2023-01-25T10:15:24.678Z,17.70
2023-01-25T10:16:26.120Z,17.20
2023-01-25T10:17:19.453Z,18.10
2023-01-25T10:18:20.608Z,17.40
2023-01-25T10:19:22.129Z,17.90
2023-01-25T10:20:20.290Z,18.40
2023-01-25T10:21:19.697Z,18.00
2023-01-25T10:26:18.691Z,19.50
2023-01-25T10:27:26.067Z,19.20
2023-01-25T10:28:14.915Z,18.60
2023-01-25T10:29:14.754Z,20.30
2023-01-25T10:30:12.413Z,19.80
2023-01-25T10:31:14.487Z,19.80
2023-01-25T10:32:12.384Z,20.00
2023-01-25T10:33:12.724Z,19.70
2023-01-25T10:34:12.311Z,18.90
2023-01-25T10:35:17.429Z,20.40
2023-01-25T10:36:13.360Z,19.30
2023-01-25T10:37:12.956Z,18.80
2023-01-25T10:38:14.501Z,19.90
2023-01-25T10:39:12.268Z,19.00
2023-01-25T10:40:12.255Z,19.50
2023-01-25T10:41:12.363Z,21.00
2023-01-25T10:42:12.162Z,19.80
2023-01-25T10:43:12.525Z,19.50
2023-01-25T10:44:13.623Z,20.50
2023-01-25T10:45:12.293Z,19.90
2023-01-25T10:46:12.250Z,20.60
2023-01-25T10:47:12.006Z,19.60
2023-01-25T10:48:12.102Z,19.60
2023-01-25T10:49:12.099Z,20.30
2023-01-25T10:50:12.017Z,20.40
2023-01-25T10:51:12.145Z,19.40
2023-01-25T10:52:12.259Z,19.40
2023-01-25T10:53:12.145Z,19.70
2023-01-25T10:54:12.136Z,19.20
2023-01-25T10:55:12.109Z,20.10
2023-01-25T10:56:12.891Z,19.20
2023-01-25T10:57:12.079Z,19.90
2023-01-25T10:58:12.987Z,19.10
2023-01-25T10:59:15.044Z,19.80
2023-01-25T11:00:18.780Z,18.50
2023-01-25T11:01:13.318Z,19.00
2023-01-25T11:02:12.009Z,19.70
2023-01-25T11:03:13.964Z,19.10
2023-01-25T11:04:19.181Z,19.40
2023-01-25T11:05:17.352Z,18.80
2023-01-25T11:06:11.827Z,18.90
2023-01-25T11:07:16.125Z,18.80
2023-01-25T11:08:12.057Z,19.10
2023-01-25T11:09:17.661Z,19.90
2023-01-25T11:10:12.396Z,20.40
2023-01-25T11:11:12.164Z,19.50
2023-01-25T11:12:13.528Z,19.70
2023-01-25T11:13:12.281Z,19.20
2023-01-25T11:14:13.303Z,20.60
2023-01-25T11:15:14.767Z,20.60
2023-01-25T11:16:20.878Z,20.80
2023-01-25T11:17:12.617Z,21.40
2023-01-25T11:18:12.127Z,20.50
2023-01-25T11:19:12.338Z,20.40
2023-01-25T11:20:12.705Z,21.00
2023-01-25T11:21:11.631Z,21.90
2023-01-25T11:22:12.769Z,21.50
2023-01-25T11:25:02.002Z,20.70
2023-01-25T11:25:46.696Z,20.60
2023-01-25T11:26:45.962Z,21.50
2023-01-25T11:27:45.971Z,20.90
2023-01-25T11:28:48.559Z,21.40
2023-01-25T11:29:47.443Z,21.60
2023-01-25T11:30:46.468Z,20.30
2023-01-25T11:31:49.645Z,21.20
2023-01-25T11:32:46.318Z,21.40
2023-01-25T11:33:46.033Z,21.80
2023-01-25T11:34:45.938Z,20.60
2023-01-25T11:35:46.032Z,20.80
2023-01-25T11:36:45.928Z,19.70
2023-01-25T11:37:49.541Z,19.80
2023-01-25T11:38:48.499Z,20.00
2023-01-25T11:39:45.990Z,20.40
2023-01-25T11:40:47.922Z,20.10
2023-01-25T11:41:46.069Z,20.30
2023-01-25T11:42:48.648Z,19.00
2023-01-25T11:43:46.093Z,20.00
2023-01-25T11:44:46.835Z,20.10
2023-01-25T11:45:47.354Z,21.00
2023-01-25T11:46:46.899Z,19.70
2023-01-25T11:47:47.260Z,21.10
2023-01-25T11:48:46.325Z,21.00
2023-01-25T11:49:45.977Z,20.60
2023-01-25T11:50:45.825Z,21.40
2023-01-25T11:51:46.955Z,19.70
2023-01-25T11:52:46.263Z,19.90
2023-01-25T11:53:45.749Z,19.80
2023-01-25T11:54:45.651Z,19.60
2023-01-25T11:55:45.902Z,20.60
2023-01-25T11:56:45.718Z,18.70
2023-01-25T11:57:45.580Z,20.10
2023-01-25T11:58:45.989Z,18.40
2023-01-25T11:59:45.592Z,19.50
2023-01-25T12:00:45.588Z,19.00
2023-01-25T12:01:45.699Z,20.10
2023-01-25T12:02:45.846Z,19.40
2023-01-25T12:03:46.671Z,18.50
2023-01-25T12:04:45.842Z,19.10
2023-01-25T12:05:45.619Z,19.90
2023-01-25T12:06:46.151Z,18.70
2023-01-25T12:07:46.275Z,20.00
2023-01-25T12:08:45.733Z,19.40
2023-01-25T12:09:46.243Z,19.70
2023-01-25T12:10:46.160Z,19.60
2023-01-25T12:11:45.585Z,20.30
2023-01-25T12:12:45.576Z,19.40
2023-01-25T12:13:47.262Z,21.00
2023-01-25T12:14:45.602Z,19.10
2023-01-25T12:15:45.759Z,20.60
2023-01-25T12:16:45.810Z,20.30
2023-01-25T12:17:45.836Z,21.10
2023-01-25T12:18:45.949Z,21.90
2023-01-25T12:19:45.422Z,21.70
2023-01-25T12:20:45.232Z,20.60
2023-01-25T12:21:45.437Z,20.30
2023-01-25T12:22:45.144Z,20.80
2023-01-25T12:23:46.224Z,19.60
2023-01-25T12:24:45.367Z,19.40
2023-01-25T12:25:45.278Z,19.90
2023-01-25T12:26:45.295Z,18.60
2023-01-25T12:27:45.501Z,19.70
2023-01-25T12:28:46.303Z,19.20
2023-01-25T12:29:46.122Z,19.00
2023-01-25T12:30:45.330Z,20.00
2023-01-25T12:31:46.068Z,19.00
2023-01-25T12:32:45.083Z,18.80
2023-01-25T12:33:45.698Z,19.00
2023-01-25T12:34:45.437Z,19.20
2023-01-25T12:35:45.439Z,19.90
2023-01-25T12:36:45.736Z,19.80
2023-01-25T12:37:46.468Z,18.90
2023-01-25T12:38:46.176Z,20.00
2023-01-25T12:39:45.042Z,19.00
2023-01-25T12:40:45.541Z,19.60
2023-01-25T12:41:45.190Z,20.20
2023-01-25T12:42:45.483Z,19.30
2023-01-25T12:43:45.696Z,19.50
2023-01-25T12:44:44.980Z,20.40
2023-01-25T12:45:44.815Z,20.00
2023-01-25T12:46:45.318Z,19.90
2023-01-25T12:47:45.011Z,19.90
2023-01-25T12:48:45.431Z,20.70
2023-01-25T12:49:45.857Z,21.10
2023-01-25T12:50:44.911Z,20.00
2023-01-25T12:51:45.448Z,20.20
2023-01-25T12:52:44.955Z,21.00
2023-01-25T12:53:45.146Z,19.90
2023-01-25T12:54:45.286Z,19.30
2023-01-25T12:55:44.980Z,20.50
2023-01-25T12:56:44.950Z,19.40
2023-01-25T12:57:45.387Z,20.60
2023-01-25T12:58:44.974Z,19.80
2023-01-25T12:59:45.077Z,20.00
2023-01-25T13:00:45.359Z,19.10